Weather observations for the past three days for
Ashtabula - Northeast Ohio Regional Airport
Metric (Imperial)
Date Time (edt) Wind (kph) Vis. (km) Weather Sky Cond. Temperature (ºC) Relative Humidity Wind Chill (°C) Heat Index (°C) Pressure Precipitation (cm)
Air Dwpt 6 hour altimeter (cm) sea level (mb) 1 hr 3 hr 6 hr
Max. Min.
01 14:53 W 11 16.09 Fair CLR 31.1 23.3 63% 36 76.17 1014.5
01 13:53 W 11 16.09 Fair CLR 30 22.8 30 22.8 65% 34 76.2 1015.0
01 12:53 W 15 16.09 Fair CLR 29.4 22.8 68% 33 76.23 1015.5
01 11:53 W 17 16.09 A Few Clouds FEW026 28.9 22.2 67% 32 76.23 1015.4
01 10:53 W 15 16.09 A Few Clouds FEW024 28.3 22.8 72% 32 76.23 1015.3
01 09:53 W 11 16.09 Fair CLR 27.2 22.2 74% 30 76.2 1015.1
01 08:53 SW 11 16.09 Fair CLR 25.6 21.7 79% 27 76.23 1015.3
01 07:53 SW 7 16.09 A Few Clouds FEW046 22.8 21.1 23.9 22.2 90% 76.2 1015.3
01 06:53 S 6 16.09 Fair CLR 22.2 20.6 91% 76.2 1015.1
01 05:53 SW 9 16.09 Mostly Cloudy BKN050 22.8 20.6 87% 76.17 1014.7
01 04:53 SW 11 16.09 Mostly Cloudy BKN090 22.8 21.1 90% 76.17 1014.8
01 03:53 SW 17 16.09 Light Rain OVC090 23.9 21.1 84% 24 76.17 1014.9
01 02:53 S 11 16.09 Overcast OVC095 22.8 20.6 87% 76.2 1015.0
01 01:53 S 6 16.09 Mostly Cloudy BKN110 22.2 20 23.3 21.1 87% 76.25 1015.6
01 00:53 S 11 16.09 Overcast OVC100 21.7 20.6 94% 76.25 1015.9
31 23:53 S 7 14.48 Light Rain OVC110 22.2 20.6 91% 76.28 1016.0
31 22:53 Calm 16.09 Mostly Cloudy BKN100 21.7 20.6 94% 76.28 1016.4
31 21:53 SE 7 16.09 A Few Clouds FEW075 21.7 20.6 94% 76.28 1016.3
31 20:53 SE 9 16.09 Fair CLR 22.8 21.1 90% 76.28 1016.3
31 19:53 Calm 14.48 Fair CLR 22.8 21.7 29.4 22.8 94% 76.3 1016.6
31 18:53 NE 6 16.09 Fair CLR 24.4 21.7 85% 25 76.28 1016.4
31 17:53 W 7 16.09 A Few Clouds FEW110 26.1 21.1 74% 28 76.28 1016.3
31 16:53 W 6 16.09 Fair CLR 26.7 21.1 71% 28 76.35 1017.1
31 15:53 W 9 16.09 Light Rain BKN110 25.6 19.4 69% 27 76.35 1017.3
31 14:53 W 7 16.09 A Few Clouds FEW075 27.8 20 63% 29 76.38 1017.6
31 13:53 SW 7 16.09 Mostly Cloudy BKN100 BKN110 27.8 21.7 27.8 19.4 69% 30 76.4 1017.8
31 12:53 SW 11 16.09 Overcast OVC085 26.1 20.6 72% 28 76.4 1017.9
31 11:53 SW 11 16.09 Fair CLR 26.7 20.6 69% 28 76.43 1018.2
31 10:53 SW 15 16.09 A Few Clouds FEW085 25 20 74% 26 76.43 1018.5
31 09:53 S 13 16.09 Partly Cloudy SCT085 22.8 19.4 81% 76.4 1018.0
31 08:53 S 9 16.09 Mostly Cloudy FEW050 SCT060 BKN090 20.6 18.3 87% 76.45 1018.8
31 07:53 S 11 16.09 A Few Clouds FEW060 19.4 17.8 19.4 18.9 91% 76.43 1018.6
31 06:53 S 7 16.09 A Few Clouds FEW070 18.9 17.8 93% 76.43 1018.5
31 05:53 S 9 16.09 Overcast OVC070 18.9 17.2 90% 76.43 1018.4
31 04:53 S 6 16.09 Overcast OVC060 18.9 17.8 93% 76.4 1018.1
31 03:53 S 6 16.09 Overcast OVC060 19.4 17.8 91% 76.4 1018.0
31 02:53 SE 9 16.09 Overcast OVC060 19.4 17.8 91% 76.43 1018.3
31 01:53 SE 11 16.09 Overcast OVC070 19.4 17.8 20.6 18.9 91% 76.43 1018.4 0.2
31 00:53 SE 15 16.09 Overcast OVC075 19.4 18.9 97% 76.48 1019.1
30 23:53 SE 9 4.83 Light Rain Fog/Mist FEW045 BKN080 OVC090 18.9 18.9 100% 76.53 1019.9 0.2
30 22:53 SE 9 16.09 Overcast OVC100 19.4 18.9 97% 76.5 1019.6
30 21:53 E 6 12.87 Light Rain OVC100 19.4 18.9 97% 76.53 1019.9
30 20:53 E 6 9.66 Fog/Mist FEW046 BKN070 OVC080 20 19.4 96% 76.58 1020.5
30 19:53 Calm 8.05 Light Rain Fog/Mist FEW029 SCT070 BKN090 20.6 20 22.8 20.6 96% 76.53 1019.7
30 18:53 Calm 12.87 Light Rain BKN100 21.1 19.4 90% 76.45 1018.7
30 17:53 S 6 16.09 Light Rain SCT110 22.2 18.9 82% 76.45 1018.8
30 16:53 SE 7 16.09 A Few Clouds FEW120 22.8 18.3 76% 76.45 1019.0
30 15:53 S 6 16.09 Overcast OVC050 22.8 18.9 79% 76.48 1019.2
30 14:53 SW 11 16.09 Overcast OVC044 21.7 18.3 81% 76.58 1020.3
30 13:53 W 11 16.09 Overcast BKN055 BKN070 OVC100 22.2 17.8 22.2 18.3 76% 76.61 1020.8
30 12:53 W 6 14.48 Light Rain FEW070 SCT085 OVC110 20.6 18.9 90% 76.61 1021.0
30 11:53 SW 7 16.09 Light Rain BKN110 20.6 18.3 87% 76.63 1021.1
30 10:53 Calm 16.09 Overcast FEW050 BKN090 OVC110 20 17.2 84% 76.58 1020.6
30 09:53 Calm 16.09 Light Rain FEW055 BKN090 OVC110 19.4 16.1 81% 76.56 1020.3
30 08:53 Calm 16.09 Light Rain FEW080 OVC095 18.9 15 78% 76.53 1020.0
30 07:53 Calm 16.09 A Few Clouds FEW110 18.3 15 18.3 17.2 81% 76.5 1019.7
30 06:53 S 7 16.09 Overcast OVC095 17.8 14.4 81% 76.5 1019.6
30 05:53 S 6 16.09 Overcast OVC110 17.8 14.4 81% 76.53 1019.7
30 04:53 S 7 16.09 Partly Cloudy SCT110 17.8 14.4 81% 76.53 1019.8
30 03:53 S 6 16.09 Overcast OVC110 17.8 15 84% 76.56 1020.0
30 02:53 Calm 16.09 A Few Clouds FEW120 17.8 14.4 81% 76.58 1020.3
30 01:53 S 6 16.09 Fair CLR 17.8 14.4 19.4 16.1 81% 76.58 1020.5
30 00:53 S 7 16.09 Fair CLR 17.8 14.4 81% 76.58 1020.5
29 23:53 Calm 16.09 Fair CLR 17.8 14.4 81% 76.56 1020.3
29 22:53 SE 6 16.09 Fair CLR 17.8 15.6 87% 76.56 1020.2
29 21:53 Calm 16.09 Fair CLR 17.2 16.1 93% 76.58 1020.7
29 20:53 Calm 16.09 Fair CLR 18.3 16.7 90% 76.58 1020.6
29 19:53 Calm 16.09 Fair CLR 19.4 16.7 26.7 19.4 84% 76.56 1020.6
29 18:53 Calm 16.09 Fair CLR 22.8 16.1 66% 76.58 1020.9
29 17:53 S 7 16.09 Fair CLR 24.4 12.8 48% 26 76.63 1021.1
29 16:53 S 15 16.09 Fair CLR 25.6 11.7 42% 26 76.63 1021.3
29 15:53 S 9 16.09 Fair CLR 26.1 11.1 39% 26 76.66 1021.6
Date Time (edt) Wind (kph) Vis. (km) Weather Sky Cond. Air Dwpt Max. Min. Relative Humidity Wind Chill (°C) Heat Index (°C) altimeter (cm) sea level (mb) 1 hr 3 hr 6 hr
6 hour
Temperature (ºC) Pressure Precipitation (cm)